Time;durP1;ratioP1;P1;durP2;ratioP2;P2;SDS_P1;SDS_P2;PMS_P1;PMS_P2;Temp;Humidity;BMP_temperature;BMP_pressure;BME280_temperature;BME280_humidity;BME280_pressure;Samples;Min_cycle;Max_cycle;Signal;HPM_P1;HPM_P2
2023/02/21 02:14:52;;;;;;;1.95;1.10;;;;;;;-1.65;100.00;93392.16;2072649;28;20040;-83
2023/02/21 02:15:55;;;;;;;1.80;0.90;;;;;;;-1.63;100.00;93392.56;2070638;28;20047;-84
2023/02/21 02:19:38;;;;;;;2.90;1.10;;;;;;;-1.87;100.00;93386.31;2128481;27;20541;-75
2023/02/21 02:21:04;;;;;;;2.38;1.10;;;;;;;-1.96;100.00;93384.91;2120858;27;20453;-75
2023/02/21 02:22:29;;;;;;;3.30;1.30;;;;;;;-2.00;100.00;93386.66;2119297;28;20023;-74
2023/02/21 02:23:58;;;;;;;7.10;1.90;;;;;;;-1.87;100.00;93385.53;2119029;27;20411;-75
2023/02/21 02:25:28;;;;;;;4.57;1.50;;;;;;;-1.88;100.00;93387.41;2119943;28;20038;-75
2023/02/21 02:26:53;;;;;;;3.33;1.30;;;;;;;-1.80;100.00;93386.53;2078051;28;20045;-75
2023/02/21 02:28:22;;;;;;;3.50;1.10;;;;;;;-1.93;100.00;93382.41;2121082;27;20434;-75
2023/02/21 02:29:39;;;;;;;2.78;1.30;;;;;;;-1.99;100.00;93382.94;2122350;27;20084;-76
2023/02/21 02:30:51;;;;;;;3.85;1.13;;;;;;;-2.18;100.00;93379.03;2122665;27;20823;-75
2023/02/21 02:32:31;;;;;;;4.35;1.27;;;;;;;-2.09;100.00;93379.69;2121975;27;20110;-75
2023/02/21 02:34:08;;;;;;;1.45;1.00;;;;;;;-2.03;100.00;93383.59;2101652;28;20050;-75
2023/02/21 02:35:16;;;;;;;2.88;1.05;;;;;;;-2.08;100.00;93383.81;2075454;28;20125;-76
2023/02/21 02:36:20;;;;;;;5.22;1.30;;;;;;;-2.04;100.00;93384.69;2074594;28;20053;-75
2023/02/21 02:38:01;;;;;;;2.25;1.08;;;;;;;-2.11;100.00;93381.09;2086083;28;20041;-75
2023/02/21 02:39:17;;;;;;;;;;;;;;;-2.08;100.00;93385.69;2121210;27;20093;-75
2023/02/21 02:40:31;;;;;;;2.15;1.10;;;;;;;-2.11;100.00;93384.50;2120625;27;19916;-75
2023/02/21 02:41:38;;;;;;;1.05;0.90;;;;;;;-2.18;100.00;93380.91;2119865;27;20039;-75
2023/02/21 02:42:50;;;;;;;3.85;1.00;;;;;;;-2.14;100.00;93381.78;2119868;28;20388;-75
2023/02/21 02:44:05;;;;;;;1.75;0.90;;;;;;;-2.12;100.00;93376.94;2110995;28;20736;-76
2023/02/21 02:45:18;;;;;;;2.08;0.80;;;;;;;-2.19;100.00;93376.75;2112887;28;20107;-75
2023/02/21 02:46:33;;;;;;;1.35;0.82;;;;;;;-2.18;100.00;93373.81;2110455;28;20032;-75
2023/02/21 02:47:38;;;;;;;2.45;0.90;;;;;;;-2.13;100.00;93386.66;2113222;28;20130;-75
2023/02/21 02:48:43;;;;;;;1.65;0.90;;;;;;;-2.09;100.00;93376.31;2124710;27;20375;-75
2023/02/21 02:49:45;;;;;;;2.15;0.85;;;;;;;-2.16;100.00;93374.22;2121876;27;20114;-75
2023/02/21 02:50:49;;;;;;;2.60;0.93;;;;;;;-2.10;100.00;93375.53;2119868;28;20024;-75
2023/02/21 02:51:51;;;;;;;1.70;0.98;;;;;;;-2.08;100.00;93375.19;2111553;28;20113;-75
2023/02/21 02:52:53;;;;;;;3.10;1.10;;;;;;;-2.12;100.00;93371.72;2103476;28;20032;-75
2023/02/21 02:53:55;;;;;;;2.25;1.13;;;;;;;-2.21;100.00;93373.69;2111042;28;20103;-75
2023/02/21 02:55:01;;;;;;;5.88;1.13;;;;;;;-2.15;100.00;93367.91;2102109;28;20032;-74
2023/02/21 02:56:05;;;;;;;4.70;1.00;;;;;;;-2.20;100.00;93369.97;2111622;28;20042;-75
2023/02/21 02:57:09;;;;;;;2.17;0.90;;;;;;;-2.18;100.00;93370.44;2121080;27;20062;-75
2023/02/21 02:58:11;;;;;;;3.53;1.20;;;;;;;-2.24;100.00;93367.25;2120881;27;20093;-75
2023/02/21 02:59:22;;;;;;;1.55;1.00;;;;;;;-2.14;100.00;93368.69;2119400;27;20110;-75
2023/02/21 03:00:23;;;;;;;3.28;1.20;;;;;;;-2.11;100.00;93366.16;2121424;27;20031;-75
2023/02/21 03:01:52;;;;;;;1.95;0.93;;;;;;;-2.14;100.00;93372.06;2120715;27;20030;-75
2023/02/21 03:02:59;;;;;;;3.67;1.05;;;;;;;-2.09;100.00;93363.22;2120515;27;20031;-76
2023/02/21 03:04:37;;;;;;;2.70;0.80;;;;;;;-2.10;100.00;93366.94;2119436;27;20083;-75
2023/02/21 03:05:59;;;;;;;3.40;1.38;;;;;;;-2.24;100.00;93369.09;2112316;28;20036;-76
2023/02/21 03:07:06;;;;;;;3.25;1.10;;;;;;;-2.19;100.00;93366.28;2115996;27;20035;-77
2023/02/21 03:08:20;;;;;;;1.15;0.80;;;;;;;-2.22;100.00;93367.69;2111338;28;20047;-76
2023/02/21 03:09:50;;;;;;;4.53;1.10;;;;;;;-2.29;100.00;93365.59;2112799;28;20454;-75
2023/02/21 03:11:14;;;;;;;3.78;1.23;;;;;;;-2.28;100.00;93367.16;2120418;27;20043;-76
2023/02/21 03:12:24;;;;;;;3.38;1.30;;;;;;;-2.25;100.00;93370.19;2120353;27;20508;-75
2023/02/21 03:13:56;;;;;;;1.73;0.95;;;;;;;-2.29;100.00;93360.38;2111240;28;20040;-75
2023/02/21 03:15:19;;;;;;;2.40;1.00;;;;;;;-2.35;100.00;93372.16;2111031;28;20772;-75
2023/02/21 03:16:36;;;;;;;4.28;1.20;;;;;;;-2.26;100.00;93366.81;2114038;27;20073;-74
2023/02/21 03:17:51;;;;;;;3.17;1.38;;;;;;;-2.33;100.00;93364.78;2120461;27;20394;-76
2023/02/21 03:19:16;;;;;;;2.88;1.40;;;;;;;-2.38;100.00;93369.44;2121796;27;20044;-75
2023/02/21 03:20:20;;;;;;;1.92;1.40;;;;;;;-2.38;100.00;93364.19;2119201;27;20385;-75
2023/02/21 03:21:27;;;;;;;2.13;1.40;;;;;;;-2.24;100.00;93369.84;2120045;27;20031;-75
2023/02/21 03:22:30;;;;;;;2.00;1.48;;;;;;;-2.26;100.00;93374.66;2118720;27;20049;-74
2023/02/21 03:23:34;;;;;;;3.85;1.63;;;;;;;-2.31;100.00;93375.66;2110890;28;20023;-75
2023/02/21 03:24:38;;;;;;;2.58;1.67;;;;;;;-2.30;100.00;93374.56;2111041;28;20063;-75
2023/02/21 03:25:41;;;;;;;3.05;1.63;;;;;;;-2.37;100.00;93378.81;2119521;27;20039;-74
2023/02/21 03:26:47;;;;;;;3.63;1.80;;;;;;;-2.34;100.00;93375.53;2117561;27;20031;-76
2023/02/21 03:27:54;;;;;;;3.88;1.88;;;;;;;-2.26;100.00;93372.06;2119655;27;20076;-76
2023/02/21 03:28:55;;;;;;;3.28;1.83;;;;;;;-2.15;100.00;93370.53;2120244;27;20080;-76
2023/02/21 03:30:00;;;;;;;4.13;2.20;;;;;;;-2.16;100.00;93370.84;2109332;28;20035;-76
2023/02/21 03:31:06;;;;;;;7.55;2.65;;;;;;;-2.22;100.00;93372.94;2105711;28;20438;-76
2023/02/21 03:33:26;;;;;;;3.88;2.50;;;;;;;-2.15;100.00;93373.16;2105276;28;20036;-76
2023/02/21 03:34:28;;;;;;;6.75;2.60;;;;;;;-2.12;100.00;93371.72;2105501;28;20028;-76
2023/02/21 03:35:30;;;;;;;4.07;2.50;;;;;;;-2.15;100.00;93367.13;2114497;27;20031;-75
2023/02/21 03:36:32;;;;;;;3.08;1.92;;;;;;;-2.24;100.00;93364.63;2105348;28;20027;-76
2023/02/21 03:37:40;;;;;;;4.53;2.60;;;;;;;-2.26;100.00;93368.69;2105165;28;20516;-75
2023/02/21 03:38:41;;;;;;;6.68;2.30;;;;;;;-2.14;100.00;93372.06;2104460;28;20054;-76
2023/02/21 03:39:42;;;;;;;4.53;2.80;;;;;;;-2.27;100.00;93367.91;2106134;28;20016;-76
2023/02/21 03:40:43;;;;;;;4.75;2.05;;;;;;;-2.22;100.00;93372.16;2116540;27;20043;-75
2023/02/21 03:41:45;;;;;;;3.70;3.25;;;;;;;-2.28;100.00;93364.53;2115176;27;20067;-75
2023/02/21 03:42:46;;;;;;;6.03;2.17;;;;;;;-2.30;100.00;93371.94;2114603;27;20039;-75
2023/02/21 03:43:47;;;;;;;3.33;2.10;;;;;;;-2.34;100.00;93368.44;2114051;28;20130;-75
2023/02/21 03:44:48;;;;;;;4.00;2.20;;;;;;;-2.37;100.00;93370.97;2105604;28;20036;-75
2023/02/21 03:45:49;;;;;;;3.00;1.98;;;;;;;-2.35;100.00;93368.78;2105496;28;20192;-74
2023/02/21 03:46:51;;;;;;;2.22;1.88;;;;;;;-2.34;100.00;93370.31;2113805;27;20027;-76
2023/02/21 03:47:52;;;;;;;2.90;1.70;;;;;;;-2.34;100.00;93370.31;2096625;28;20264;-76
2023/02/21 03:48:54;;;;;;;2.85;1.48;;;;;;;-2.34;100.00;93370.31;2097656;28;20471;-76
2023/02/21 03:49:55;;;;;;;2.35;2.15;;;;;;;-2.30;100.00;93361.47;2114188;27;20078;-75
2023/02/21 03:50:56;;;;;;;2.90;1.77;;;;;;;-2.32;100.00;93365.53;2114450;27;20093;-75
2023/02/21 03:51:57;;;;;;;3.35;1.70;;;;;;;-2.32;100.00;93366.28;2103743;28;20123;-75
2023/02/21 03:53:00;;;;;;;2.50;1.50;;;;;;;-2.37;100.00;93365.72;2097286;28;20070;-75
2023/02/21 03:54:01;;;;;;;1.60;1.30;;;;;;;-2.41;100.00;93370.88;2105369;28;20039;-74
2023/02/21 03:55:02;;;;;;;3.53;1.30;;;;;;;-2.38;100.00;93372.06;2113857;27;20051;-74
2023/02/21 03:56:04;;;;;;;3.20;1.50;;;;;;;-2.39;100.00;93370.53;2114298;27;20027;-74
2023/02/21 03:57:06;;;;;;;2.50;1.35;;;;;;;-2.38;100.00;93372.06;2114485;27;20023;-75
2023/02/21 03:58:08;;;;;;;2.25;1.35;;;;;;;-2.41;100.00;93367.50;2115215;27;20035;-75
2023/02/21 03:59:09;;;;;;;2.80;1.52;;;;;;;-2.46;100.00;93365.06;2113493;27;20034;-75
2023/02/21 04:00:12;;;;;;;5.63;1.40;;;;;;;-2.42;100.00;93366.72;2115202;27;20042;-75
2023/02/21 04:01:17;;;;;;;4.38;1.40;;;;;;;-2.39;100.00;93373.16;2112627;27;20024;-75
2023/02/21 04:02:19;;;;;;;4.32;1.20;;;;;;;-2.41;100.00;93370.88;2114177;27;20043;-76
2023/02/21 04:03:20;;;;;;;2.67;1.33;;;;;;;-2.39;100.00;93370.53;2105370;28;20090;-75
2023/02/21 04:04:21;;;;;;;3.30;1.35;;;;;;;-2.43;100.00;93367.03;2104860;28;20032;-76
2023/02/21 04:05:22;;;;;;;4.15;1.15;;;;;;;-2.39;100.00;93366.06;2104506;28;20028;-75
2023/02/21 04:06:24;;;;;;;3.65;1.33;;;;;;;-2.39;100.00;93368.69;2104706;28;20103;-75
2023/02/21 04:07:26;;;;;;;3.10;1.40;;;;;;;-2.44;100.00;93374.13;2114200;27;20024;-75
2023/02/21 04:08:27;;;;;;;2.10;1.25;;;;;;;-2.39;100.00;93373.16;2112227;27;20103;-76
2023/02/21 04:09:28;;;;;;;4.00;1.40;;;;;;;-2.39;100.00;93373.91;2105152;28;20040;-75
2023/02/21 04:10:29;;;;;;;3.60;1.25;;;;;;;-2.44;100.00;93373.38;2106022;28;20043;-75
2023/02/21 04:11:31;;;;;;;3.15;1.40;;;;;;;-2.39;100.00;93381.00;2114638;27;20160;-75
2023/02/21 04:12:32;;;;;;;4.53;1.30;;;;;;;-2.37;100.00;93379.59;2113562;27;20035;-75
2023/02/21 04:13:33;;;;;;;2.08;1.13;;;;;;;-2.32;100.00;93381.22;2114548;27;20110;-76
2023/02/21 04:14:34;;;;;;;1.10;1.00;;;;;;;-2.32;100.00;93373.38;2114355;27;20047;-75
2023/02/21 04:15:35;;;;;;;1.67;1.30;;;;;;;-2.37;100.00;93371.75;2114599;27;20035;-76
2023/02/21 04:16:37;;;;;;;2.15;1.33;;;;;;;-2.28;100.00;93379.50;2114456;27;20553;-76
2023/02/21 04:17:38;;;;;;;5.20;1.20;;;;;;;-2.32;100.00;93373.38;2114531;27;20454;-75
2023/02/21 04:18:39;;;;;;;1.95;1.10;;;;;;;-2.25;100.00;93368.34;2114047;27;20043;-76
2023/02/21 04:19:41;;;;;;;2.92;1.33;;;;;;;-2.32;100.00;93374.13;2105918;28;20077;-76
2023/02/21 04:20:41;;;;;;;3.65;1.13;;;;;;;-2.33;100.00;93375.25;2104883;28;20032;-75
2023/02/21 04:21:43;;;;;;;2.05;1.17;;;;;;;-2.36;100.00;93369.88;2114468;27;20484;-75
2023/02/21 04:22:45;;;;;;;2.30;1.10;;;;;;;-2.42;100.00;93379.03;2114822;27;20088;-75
2023/02/21 04:23:47;;;;;;;2.83;1.60;;;;;;;-2.46;100.00;93373.69;2113745;27;20038;-74
2023/02/21 04:24:49;;;;;;;2.45;1.48;;;;;;;-2.42;100.00;93373.78;2114431;27;20595;-75
2023/02/21 04:25:51;;;;;;;3.42;1.20;;;;;;;-2.48;100.00;93381.13;2105223;28;20115;-75
2023/02/21 04:26:53;;;;;;;3.00;1.23;;;;;;;-2.46;100.00;93380.78;2105488;28;20059;-75
2023/02/21 04:27:54;;;;;;;2.83;1.20;;;;;;;-2.32;100.00;93374.13;2105325;28;20032;-75
2023/02/21 04:28:55;;;;;;;3.20;1.55;;;;;;;-2.33;100.00;93375.25;2104666;28;20089;-75
2023/02/21 04:29:56;;;;;;;2.42;1.27;;;;;;;-2.42;100.00;93374.56;2105366;28;20103;-75
2023/02/21 04:30:57;;;;;;;2.90;1.20;;;;;;;-2.40;100.00;93371.63;2113922;27;20031;-75
2023/02/21 04:31:59;;;;;;;2.40;0.95;;;;;;;-2.43;100.00;93374.91;2114489;27;20027;-75
2023/02/21 04:33:00;;;;;;;2.58;1.17;;;;;;;-2.37;100.00;93370.97;2114339;27;20044;-74
2023/02/21 04:34:02;;;;;;;3.42;1.17;;;;;;;-2.41;100.00;93376.09;2114716;27;20102;-75
2023/02/21 04:35:03;;;;;;;3.35;1.30;;;;;;;-2.43;100.00;93380.13;2113932;27;20127;-74
2023/02/21 04:36:04;;;;;;;3.22;1.10;;;;;;;-2.44;100.00;93368.91;2114527;27;20069;-75
2023/02/21 04:37:05;;;;;;;2.67;0.98;;;;;;;-2.38;100.00;93372.81;2114615;27;20057;-75
2023/02/21 04:38:06;;;;;;;2.75;1.00;;;;;;;-2.40;100.00;93369.78;2113983;28;20024;-75
2023/02/21 04:39:07;;;;;;;2.50;0.90;;;;;;;-2.37;100.00;93370.97;2115093;27;20081;-75
2023/02/21 04:40:09;;;;;;;2.55;1.20;;;;;;;-2.45;100.00;93364.00;2113962;27;20058;-74
2023/02/21 04:41:10;;;;;;;2.00;1.20;;;;;;;-2.42;100.00;93369.31;2114662;27;20061;-74
2023/02/21 04:42:11;;;;;;;2.78;1.42;;;;;;;-2.41;100.00;93377.97;2112847;28;20032;-75
2023/02/21 04:43:12;;;;;;;1.40;1.27;;;;;;;-2.48;100.00;93360.19;2112428;27;20024;-75
2023/02/21 04:44:13;;;;;;;2.50;1.00;;;;;;;-2.53;100.00;93368.25;2114406;27;20035;-75
2023/02/21 04:45:15;;;;;;;2.45;1.25;;;;;;;-2.53;100.00;93369.00;2113977;27;20028;-74
2023/02/21 04:46:17;;;;;;;2.65;1.30;;;;;;;-2.52;100.00;93369.75;2114308;28;20081;-74
2023/02/21 04:47:19;;;;;;;3.40;0.95;;;;;;;-2.53;100.00;93363.78;2114385;27;20023;-73
2023/02/21 04:48:20;;;;;;;1.55;1.00;;;;;;;-2.57;100.00;93370.00;2115119;27;20024;-74
2023/02/21 04:49:24;;;;;;;3.17;1.10;;;;;;;-2.58;100.00;93365.84;2115534;27;20430;-73
2023/02/21 04:50:27;;;;;;;1.73;1.20;;;;;;;-2.42;100.00;93368.56;2105176;28;20036;-74
2023/02/21 04:51:29;;;;;;;1.83;1.00;;;;;;;-2.49;100.00;93358.66;2103658;28;20500;-75
2023/02/21 04:52:30;;;;;;;3.45;1.00;;;;;;;-2.54;100.00;93364.88;2114455;27;20059;-74
2023/02/21 04:53:32;;;;;;;2.13;1.10;;;;;;;-2.50;100.00;93362.38;2113989;28;20039;-76
2023/02/21 04:54:33;;;;;;;2.78;1.23;;;;;;;-2.51;100.00;93358.19;2114391;27;20108;-74
2023/02/21 04:55:34;;;;;;;1.67;1.00;;;;;;;-2.49;100.00;93363.13;2113518;27;20085;-74
2023/02/21 04:56:36;;;;;;;5.35;1.20;;;;;;;-2.63;100.00;93353.75;2114027;27;20027;-74
2023/02/21 04:57:37;;;;;;;1.58;1.00;;;;;;;-2.59;100.00;93356.44;2114355;27;20042;-74
2023/02/21 04:58:40;;;;;;;4.32;1.10;;;;;;;-2.62;100.00;93362.34;2113338;27;20397;-74
2023/02/21 04:59:41;;;;;;;3.60;1.15;;;;;;;-2.57;100.00;93360.28;2114197;28;20028;-74
2023/02/21 05:00:42;;;;;;;1.80;1.02;;;;;;;-2.54;100.00;93362.25;2111670;27;20024;-73
2023/02/21 05:01:43;;;;;;;3.38;1.10;;;;;;;-2.50;100.00;93366.81;2114239;27;20044;-73
2023/02/21 05:02:47;;;;;;;3.72;1.30;;;;;;;-2.49;100.00;93360.50;2114215;27;20034;-73
2023/02/21 05:03:48;;;;;;;4.20;1.40;;;;;;;-2.56;100.00;93353.94;2114032;27;20032;-74
2023/02/21 05:04:50;;;;;;;3.30;1.13;;;;;;;-2.59;100.00;93352.00;2113718;27;20071;-73
2023/02/21 05:05:51;;;;;;;2.22;1.23;;;;;;;-2.55;100.00;93363.34;2114195;27;20533;-73
2023/02/21 05:06:52;;;;;;;3.17;1.30;;;;;;;-2.51;100.00;93354.81;2113956;27;20035;-73
2023/02/21 05:07:53;;;;;;;2.10;1.30;;;;;;;-2.47;100.00;93353.09;2113808;27;20106;-73
2023/02/21 05:08:55;;;;;;;4.55;1.42;;;;;;;-2.47;100.00;93356.47;2114278;27;20114;-73
2023/02/21 05:09:56;;;;;;;2.22;1.40;;;;;;;-2.45;100.00;93356.91;2114505;27;20119;-73
2023/02/21 05:10:57;;;;;;;3.58;1.10;;;;;;;-2.45;100.00;93356.91;2111848;27;20092;-75
2023/02/21 05:11:58;;;;;;;5.32;1.50;;;;;;;-2.55;100.00;93352.09;2101752;28;20047;-74
2023/02/21 05:13:00;;;;;;;4.47;1.60;;;;;;;-2.48;100.00;93356.78;2105084;28;20148;-74
2023/02/21 05:14:01;;;;;;;7.13;1.42;;;;;;;-2.48;100.00;93349.72;2113108;27;20042;-74
2023/02/21 05:15:05;;;;;;;2.67;1.27;;;;;;;-2.51;100.00;93352.97;2103529;28;20650;-73
2023/02/21 05:16:06;;;;;;;2.42;1.20;;;;;;;-2.48;100.00;93348.94;2109128;28;20031;-73
2023/02/21 05:17:08;;;;;;;2.03;1.10;;;;;;;-2.49;100.00;93348.19;2117996;27;20679;-73
2023/02/21 05:18:09;;;;;;;4.03;1.70;;;;;;;-2.45;100.00;93351.69;2114064;27;20433;-74
2023/02/21 05:19:12;;;;;;;4.13;1.48;;;;;;;-2.57;100.00;93349.06;2116851;27;20043;-73
2023/02/21 05:20:13;;;;;;;3.03;1.40;;;;;;;-2.59;100.00;93351.22;2118101;27;20031;-73
2023/02/21 05:21:17;;;;;;;3.17;1.67;;;;;;;-2.66;100.00;93357.00;2117835;27;20031;-73
2023/02/21 05:22:19;;;;;;;2.22;1.40;;;;;;;-2.59;100.00;93351.22;2119186;27;20076;-74
2023/02/21 05:23:34;;;;;;;5.00;1.67;;;;;;;-2.57;100.00;93355.03;2119806;27;20473;-74
2023/02/21 05:24:41;;;;;;;3.63;1.80;;;;;;;-2.57;100.00;93349.81;2117547;27;20076;-73
2023/02/21 05:25:45;;;;;;;4.20;1.67;;;;;;;-2.55;100.00;93357.31;2113676;27;20511;-74
2023/02/21 05:26:47;;;;;;;3.63;2.03;;;;;;;-2.55;100.00;93352.09;2117640;27;20119;-73
2023/02/21 05:27:51;;;;;;;3.55;2.00;;;;;;;-2.65;100.00;93348.06;2108310;28;20031;-74
2023/02/21 05:28:53;;;;;;;3.58;1.85;;;;;;;-2.61;100.00;93353.41;2108681;28;20039;-73
2023/02/21 05:29:54;;;;;;;3.20;2.00;;;;;;;-2.56;100.00;93348.72;2117412;27;20122;-74
2023/02/21 05:30:55;;;;;;;3.40;2.40;;;;;;;-2.63;100.00;93348.50;2108658;28;20028;-74
2023/02/21 05:31:56;;;;;;;3.83;2.08;;;;;;;-2.65;100.00;93352.53;2099581;28;20078;-74
2023/02/21 05:32:59;;;;;;;5.05;1.98;;;;;;;-2.66;100.00;93357.00;2108433;28;20032;-74
2023/02/21 05:34:00;;;;;;;4.25;1.83;;;;;;;-2.65;100.00;93352.53;2117128;27;20041;-74
2023/02/21 05:35:01;;;;;;;4.00;2.10;;;;;;;-2.71;100.00;93353.84;2114771;27;20042;-74
2023/02/21 05:36:03;;;;;;;4.65;1.77;;;;;;;-2.70;100.00;93353.50;2118533;27;20031;-73
2023/02/21 05:37:04;;;;;;;3.30;1.88;;;;;;;-2.57;100.00;93362.13;2106985;28;20028;-74
2023/02/21 05:38:05;;;;;;;4.15;1.60;;;;;;;-2.53;100.00;93363.00;2097440;28;20375;-73
2023/02/21 05:39:07;;;;;;;4.40;1.67;;;;;;;-2.56;100.00;93353.19;2095684;28;20747;-74
2023/02/21 05:40:11;;;;;;;2.95;1.60;;;;;;;-2.68;100.00;93358.41;2104841;28;20475;-74
2023/02/21 05:41:14;;;;;;;2.45;1.40;;;;;;;-2.76;100.00;93354.06;2119216;27;20027;-74
2023/02/21 05:42:15;;;;;;;1.35;1.20;;;;;;;-2.71;100.00;93362.47;2108577;28;20114;-74
2023/02/21 05:43:16;;;;;;;4.10;1.58;;;;;;;-2.70;100.00;93358.00;2097040;28;20016;-74
2023/02/21 05:44:18;;;;;;;3.33;1.40;;;;;;;-2.66;100.00;93362.25;2104512;28;20035;-74
2023/02/21 05:45:19;;;;;;;3.88;1.40;;;;;;;-2.68;100.00;93359.16;2115085;27;20027;-74
2023/02/21 05:46:26;;;;;;;3.33;1.50;;;;;;;-2.63;100.00;93358.97;2117351;27;20396;-73
2023/02/21 05:47:27;;;;;;;7.65;1.55;;;;;;;-2.69;100.00;93355.03;2117801;27;20035;-74
2023/02/21 05:48:28;;;;;;;2.42;1.30;;;;;;;-2.70;100.00;93361.38;2119167;27;20035;-73
2023/02/21 05:49:29;;;;;;;2.75;1.35;;;;;;;-2.71;100.00;93359.84;2118392;28;20059;-74
2023/02/21 05:50:30;;;;;;;2.05;1.10;;;;;;;-2.76;100.00;93365.28;2115293;28;20103;-75
2023/02/21 05:51:39;;;;;;;3.03;1.35;;;;;;;-2.74;100.00;93365.72;2118071;27;20092;-74
2023/02/21 05:52:40;;;;;;;2.75;1.10;;;;;;;-2.71;100.00;93361.69;2115682;27;20035;-74
2023/02/21 05:53:41;;;;;;;4.35;1.30;;;;;;;-2.71;100.00;93369.53;2116079;27;20027;-74
2023/02/21 05:54:43;;;;;;;3.50;1.30;;;;;;;-2.69;100.00;93362.88;2117782;27;20035;-75
2023/02/21 05:55:44;;;;;;;4.45;1.50;;;;;;;-2.66;100.00;93359.63;2115994;27;20034;-74
2023/02/21 05:56:47;;;;;;;3.25;1.38;;;;;;;-2.72;100.00;93360.16;2117550;27;20458;-73
2023/02/21 05:57:48;;;;;;;2.85;1.50;;;;;;;-2.76;100.00;93360.06;2120330;27;20023;-73
2023/02/21 05:58:49;;;;;;;2.70;1.50;;;;;;;-2.71;100.00;93354.63;2104447;28;20028;-74
2023/02/21 05:59:51;;;;;;;2.65;1.40;;;;;;;-2.72;100.00;93360.16;2097421;28;20111;-74
2023/02/21 06:00:52;;;;;;;2.53;1.25;;;;;;;-2.80;100.00;93352.09;2104782;28;20036;-74
2023/02/21 06:01:53;;;;;;;3.22;1.50;;;;;;;-2.79;100.00;93353.63;2113948;28;20088;-72
2023/02/21 06:02:54;;;;;;;5.18;1.88;;;;;;;-2.75;100.00;93351.13;2114704;28;20040;-73
2023/02/21 06:03:58;;;;;;;4.72;1.60;;;;;;;-2.80;100.00;93352.09;2103948;28;20067;-73
2023/02/21 06:05:00;;;;;;;5.22;1.50;;;;;;;-2.85;100.00;93352.31;2093540;28;20566;-73
2023/02/21 06:06:03;;;;;;;2.45;1.45;;;;;;;-2.80;100.00;93356.56;2105973;28;20046;-74
2023/02/21 06:07:04;;;;;;;5.22;1.30;;;;;;;-2.75;100.00;93350.34;2100882;28;20024;-74
2023/02/21 06:08:05;;;;;;;2.72;1.15;;;;;;;-2.82;100.00;93349.03;2104698;28;20039;-75
2023/02/21 06:09:07;;;;;;;3.65;1.40;;;;;;;-2.91;100.00;93358.06;2104564;28;20031;-76
2023/02/21 06:10:08;;;;;;;3.08;1.38;;;;;;;-2.86;100.00;93357.84;2106381;28;20035;-76
2023/02/21 06:11:09;;;;;;;2.65;1.58;;;;;;;-2.83;100.00;93346.75;2113895;28;20435;-76
2023/02/21 06:12:10;;;;;;;4.13;1.50;;;;;;;-2.74;100.00;93354.50;2104579;28;20470;-76
2023/02/21 06:13:11;;;;;;;2.08;1.50;;;;;;;-2.71;100.00;93353.84;2102633;28;20020;-76
2023/02/21 06:14:16;;;;;;;1.85;1.30;;;;;;;-2.72;100.00;93353.09;2104844;28;20035;-75
2023/02/21 06:15:17;;;;;;;1.85;1.63;;;;;;;-2.76;100.00;93354.81;2108392;28;20039;-76
2023/02/21 06:16:19;;;;;;;5.32;1.75;;;;;;;-2.73;100.00;93361.25;2106841;28;20031;-76
2023/02/21 06:17:20;;;;;;;3.35;1.50;;;;;;;-2.72;100.00;93354.91;2110635;28;20027;-75
2023/02/21 06:18:21;;;;;;;4.22;2.20;;;;;;;-2.76;100.00;93356.69;2117146;28;20031;-75
2023/02/21 06:19:24;;;;;;;3.42;1.80;;;;;;;-2.78;100.00;93357.00;2116927;28;20126;-75
2023/02/21 06:20:25;;;;;;;4.00;1.50;;;;;;;-2.77;100.00;93363.75;2108350;28;20490;-75
2023/02/21 06:21:30;;;;;;;2.67;1.85;;;;;;;-2.79;100.00;93364.06;2104147;28;20028;-77
2023/02/21 06:22:31;;;;;;;4.45;2.10;;;;;;;-2.82;100.00;93361.34;2115125;28;20042;-75
2023/02/21 06:23:32;;;;;;;2.15;1.65;;;;;;;-2.80;100.00;93365.19;2116851;28;20079;-77
2023/02/21 06:24:35;;;;;;;4.35;1.85;;;;;;;-2.71;100.00;93362.47;2115161;28;20450;-75
2023/02/21 06:25:37;;;;;;;3.20;1.60;;;;;;;-2.69;100.00;93362.88;2117912;28;20065;-75
2023/02/21 06:26:41;;;;;;;5.78;2.10;;;;;;;-2.61;100.00;93359.41;2111256;28;20091;-76
2023/02/21 06:27:43;;;;;;;3.47;1.90;;;;;;;-2.71;100.00;93359.84;2107943;28;20110;-76
2023/02/21 06:28:44;;;;;;;4.45;2.03;;;;;;;-2.74;100.00;93357.09;2114486;28;20067;-75
2023/02/21 06:29:45;;;;;;;3.67;1.92;;;;;;;-2.76;100.00;93359.31;2108781;28;20074;-75
2023/02/21 06:30:46;;;;;;;2.85;1.70;;;;;;;-2.81;100.00;93362.88;2108271;28;20074;-76
2023/02/21 06:31:47;;;;;;;5.85;2.03;;;;;;;-2.80;100.00;93364.41;2099920;28;20051;-75
2023/02/21 06:32:49;;;;;;;4.80;1.58;;;;;;;-2.76;100.00;93360.06;2100297;28;20029;-76
2023/02/21 06:33:51;;;;;;;6.50;1.92;;;;;;;-2.81;100.00;93361.03;2106088;28;20497;-75
2023/02/21 06:34:52;;;;;;;6.50;2.22;;;;;;;-2.79;100.00;93368.56;2107721;28;20494;-75
2023/02/21 06:35:55;;;;;;;5.55;1.80;;;;;;;-2.74;100.00;93368.34;2107399;28;20026;-75
2023/02/21 06:36:56;;;;;;;4.28;2.03;;;;;;;-2.72;100.00;93365.38;2107473;28;20111;-76
2023/02/21 06:37:57;;;;;;;4.15;2.45;;;;;;;-2.76;100.00;93370.53;2116911;28;20167;-75
2023/02/21 06:38:58;;;;;;;6.70;2.08;;;;;;;-2.82;100.00;93372.56;2116978;28;20051;-76
2023/02/21 06:39:59;;;;;;;5.80;2.80;;;;;;;-2.77;100.00;93368.97;2108289;28;20545;-75
2023/02/21 06:41:05;;;;;;;4.82;2.40;;;;;;;-2.76;100.00;93375.00;2099657;28;20032;-75
2023/02/21 06:42:06;;;;;;;7.03;2.60;;;;;;;-2.74;100.00;93378.03;2108312;28;20043;-76
2023/02/21 06:43:07;;;;;;;4.38;2.50;;;;;;;-2.72;100.00;93368.00;2107642;28;20032;-75
2023/02/21 06:44:12;;;;;;;7.10;2.97;;;;;;;-2.70;100.00;93368.44;2107590;28;20036;-75
2023/02/21 06:45:14;;;;;;;3.47;2.63;;;;;;;-2.71;100.00;93377.41;2104093;28;20024;-76
2023/02/21 06:46:17;;;;;;;3.97;2.80;;;;;;;-2.75;100.00;93374.66;2107870;28;20039;-76
2023/02/21 06:47:20;;;;;;;5.70;2.50;;;;;;;-2.81;100.00;93376.72;2116325;28;20070;-76
2023/02/21 06:48:22;;;;;;;6.22;2.42;;;;;;;-2.76;100.00;93367.91;2117019;28;20410;-75
2023/02/21 06:49:24;;;;;;;4.85;2.30;;;;;;;-2.73;100.00;93369.84;2117039;28;20041;-75
2023/02/21 06:50:25;;;;;;;5.55;2.60;;;;;;;-2.77;100.00;93376.81;2117435;28;20035;-75
2023/02/21 06:51:28;;;;;;;3.15;2.28;;;;;;;-2.76;100.00;93367.91;2117201;28;20107;-76
2023/02/21 06:52:30;;;;;;;3.78;1.83;;;;;;;-2.78;100.00;93372.69;2117350;28;20043;-75
2023/02/21 06:53:32;;;;;;;3.42;2.00;;;;;;;-2.73;100.00;93376.94;2117144;28;20031;-75
2023/02/21 06:54:33;;;;;;;3.25;2.05;;;;;;;-2.69;100.00;93370.72;2116925;28;20031;-76
2023/02/21 06:55:34;;;;;;;3.33;1.83;;;;;;;-2.69;100.00;93378.59;2119528;28;20127;-75
2023/02/21 06:56:36;;;;;;;3.53;2.20;;;;;;;-2.69;100.00;93375.97;2117210;28;20031;-75
2023/02/21 06:57:37;;;;;;;2.80;2.03;;;;;;;-2.67;100.00;93376.41;2107580;28;20027;-75
2023/02/21 06:58:38;;;;;;;4.97;2.20;;;;;;;-2.68;100.00;93379.34;2099700;28;20058;-76
2023/02/21 06:59:40;;;;;;;2.50;2.08;;;;;;;-2.63;100.00;93377.28;2101235;28;20040;-75
2023/02/21 07:00:41;;;;;;;4.78;2.25;;;;;;;-2.65;100.00;93369.00;2108531;28;20035;-75
2023/02/21 07:01:44;;;;;;;4.18;2.72;;;;;;;-2.71;100.00;93369.53;2112852;28;20042;-75
2023/02/21 07:02:45;;;;;;;3.17;2.20;;;;;;;-2.65;100.00;93378.69;2113913;28;20357;-74
2023/02/21 07:03:46;;;;;;;4.63;3.00;;;;;;;-2.60;100.00;93379.25;2101956;28;20044;-71
2023/02/21 07:04:48;;;;;;;3.50;2.80;;;;;;;-2.59;100.00;93374.75;2102869;28;20035;-74
2023/02/21 07:05:49;;;;;;;3.80;2.83;;;;;;;-2.58;100.00;93381.56;2114610;27;20027;-73
2023/02/21 07:06:50;;;;;;;5.47;2.97;;;;;;;-2.53;100.00;93376.84;2115783;27;20043;-73
2023/02/21 07:07:51;;;;;;;6.00;3.78;;;;;;;-2.52;100.00;93377.63;2115757;27;20027;-74
2023/02/21 07:08:53;;;;;;;5.13;3.90;;;;;;;-2.49;100.00;93379.59;2115721;27;20524;-74
2023/02/21 07:09:54;;;;;;;5.97;3.25;;;;;;;-2.53;100.00;93376.09;2114410;27;20024;-75
2023/02/21 07:10:55;;;;;;;6.22;3.10;;;;;;;-2.39;100.00;93378.38;2116322;27;20525;-74
2023/02/21 07:11:56;;;;;;;4.55;2.85;;;;;;;-2.37;100.00;93376.19;2114807;27;20036;-74
2023/02/21 07:12:57;;;;;;;2.80;2.50;;;;;;;-2.43;100.00;93378.28;2118982;27;20125;-73
2023/02/21 07:13:59;;;;;;;5.60;2.40;;;;;;;-2.30;100.00;93381.66;2115538;27;20024;-74
2023/02/21 07:15:01;;;;;;;4.00;2.38;;;;;;;-2.25;100.00;93378.81;2115894;27;20034;-73
2023/02/21 07:16:04;;;;;;;2.78;2.00;;;;;;;-2.20;100.00;93378.59;2106657;28;20032;-73
2023/02/21 07:17:05;;;;;;;2.38;1.92;;;;;;;-2.21;100.00;93384.91;2106584;28;20663;-73